Thunder radar more information blitzortung!


Radar de pluja more information rain snow radar


Visita la nostra xarxa de llocs de meteo:

Template documentation
and downloads

And another site



No particular awareness of the weather is required.    There are no Weather-warnings

Pagina Historial Weather Underground text

Diari Resum Setembre 25, 2017 Unitats:  Mètric    Imperial   Tant
« Previous Dia
SegĂźent Dia »
Diari Setmana Mensual Anual Personalitzada
  Maxima: Minima: Media:
Temperatura: -17.8 °C -8.8 °C -6.1 °C
Punt de rosada: -17.8 °C -11.3 °C -9.4 °C
Humitat: Humidity % 56 % 70 %
Wind Speed: 0 km/h 0 km/h 13.2 km/h
RĂ fegues de vent: 0 km/h - -
Vent:- - East
Pression baro: 0 hPa 34428.8 hPa -
Precipitacions: 0 mm    
Historical Graphs
 
 
Dades de taula per Setembre 25, 2017
Temps Temperatura Punt de rosada Pression baro Vent Wind Speed RĂ fegues de vent Humitat Rainfall Rate (Hourly)
-17.8 °C -17.8 °C 0 hPa Calm     Humidity % 0 mm
00:00 -7.7 °C -8.8 °C 34428.8 hPa Calm     88 % 0 mm
00:03 -7.2 °C -8.8 °C 34533.8 hPa SW 3.1 km/h   83 % 0 mm
00:10 -7.8 °C -8.9 °C 34428.8 hPa Calm   2.6 km/h 88 % 0 mm
00:20 -7.9 °C -9.1 °C 34428.8 hPa SSE 2.6 km/h 2.6 km/h 88 % 0 mm
00:30 -8.1 °C -9.2 °C 34462.7 hPa South 2.6 km/h 5.1 km/h 88 % 0 mm
00:40 -8.1 °C -9.2 °C 34428.8 hPa SW 2.6 km/h 5.1 km/h 88 % 0 mm
00:50 -8.2 °C -9.2 °C 34428.8 hPa Calm   5.1 km/h 89 % 0 mm
01:00 -8.3 °C -9.3 °C 34428.8 hPa SW 2.6 km/h 5.1 km/h 89 % 0 mm
01:10 -8.3 °C -9.3 °C 34428.8 hPa Calm   5.1 km/h 89 % 0 mm
01:20 -8.4 °C -9.3 °C 34428.8 hPa SW 2.6 km/h 5.1 km/h 90 % 0 mm
01:30 -8.4 °C -9.3 °C 34428.8 hPa Calm   5.1 km/h 90 % 0 mm
01:40 -8.4 °C -9.3 °C 34462.7 hPa Calm     90 % 0 mm
01:50 -8.5 °C -9.3 °C 34462.7 hPa Calm   2.6 km/h 91 % 0 mm
02:00 -8.5 °C -9.3 °C 34462.7 hPa Calm     91 % 0 mm
02:10 -8.6 °C -9.6 °C 34462.7 hPa SW 2.6 km/h 5.1 km/h 90 % 0 mm
02:20 -8.7 °C -9.5 °C 34462.7 hPa Calm   5.1 km/h 91 % 0 mm
02:30 -8.6 °C -9.4 °C 34462.7 hPa WSW 2.6 km/h 5.1 km/h 91 % 0 mm
02:40 -8.6 °C -9.4 °C 34462.7 hPa Calm     91 % 0 mm
02:50 -8.6 °C -9.3 °C 34462.7 hPa Calm     92 % 0 mm
03:00 -8.7 °C -9.5 °C 34462.7 hPa Calm     91 % 0 mm
03:10 -8.7 °C -9.4 °C 34462.7 hPa Calm     92 % 0 mm
03:20 -8.8 °C -9.7 °C 34462.7 hPa Calm   5.1 km/h 91 % 0 mm
03:30 -8.8 °C -9.5 °C 34462.7 hPa Calm   2.6 km/h 92 % 0 mm
03:40 -8.7 °C -9.4 °C 34428.8 hPa Calm   2.6 km/h 92 % 0 mm
03:50 -8.6 °C -9.3 °C 34428.8 hPa Calm     92 % 0 mm
04:00 -8.5 °C -9.1 °C 34462.7 hPa Calm     93 % 0 mm
04:10 -8.4 °C -9 °C 34462.7 hPa NNW 5.1 km/h 5.1 km/h 93 % 0 mm
04:20 -8.2 °C -8.8 °C 34462.7 hPa Calm     93 % 0 mm
04:30 -8.1 °C -8.7 °C 34462.7 hPa Calm     93 % 0 mm
04:40 -7.9 °C -8.7 °C 34462.7 hPa Calm     92 % 0 mm
04:50 -7.7 °C -8.6 °C 34462.7 hPa Calm   2.6 km/h 91 % 0 mm
05:00 -7.5 °C -8.3 °C 34462.7 hPa SE 2.6 km/h 5.1 km/h 91 % 0 mm
05:10 -7.3 °C -8.3 °C 34462.7 hPa Calm   5.1 km/h 90 % 0 mm
05:20 -7.1 °C -8.2 °C 34462.7 hPa NNE 2.6 km/h 7.7 km/h 88 % 0 mm
05:30 -7.1 °C -8.4 °C 34496.6 hPa NNE 7.7 km/h 10.3 km/h 86 % 0 mm
10:32 -6.7 °C -8.1 °C 34496.6 hPa NNE 9 km/h 11.6 km/h 85 % 0 mm
10:33 -6.7 °C -8.1 °C 34496.6 hPa NNE 9 km/h 11.6 km/h 85 % 0 mm
10:34 -6.7 °C -8.2 °C 34462.7 hPa ENE 17.9 km/h 17.9 km/h 85 % 0 mm
10:39 -6.7 °C -8.3 °C 34462.7 hPa WNW 6 km/h 6 km/h 84 % 0 mm
10:44 -6.7 °C -8.3 °C 34462.7 hPa NNE 3.1 km/h   83 % 0 mm
10:49 -6.7 °C -8.4 °C 34496.6 hPa East 11.9 km/h 11.9 km/h 83 % 0 mm
10:54 -6.6 °C -8.3 °C 34496.6 hPa NE 6 km/h 6 km/h 82 % 0 mm
10:59 -6.3 °C -8.1 °C 34496.6 hPa ENE 11.9 km/h 11.9 km/h 82 % 0 mm
11:04 -6.2 °C -8.1 °C 34496.6 hPa NNE 11.9 km/h 11.9 km/h 81 % 0 mm
11:09 -6 °C -8 °C 34496.6 hPa ENE 9.8 km/h 9.8 km/h 80 % 0 mm
11:14 -5.9 °C -8 °C 34496.6 hPa ENE 11.9 km/h 11.9 km/h 79 % 0 mm
11:19 -5.9 °C -8.1 °C 34462.7 hPa ENE 9 km/h 9 km/h 79 % 0 mm
11:24 -5.8 °C -8 °C 34462.7 hPa East 9 km/h 9 km/h 78 % 0 mm
11:29 -5.6 °C -7.8 °C 34462.7 hPa East 15 km/h 15 km/h 78 % 0 mm
11:34 -5.6 °C -8 °C 34496.6 hPa ENE 15 km/h 15 km/h 76 % 0 mm
11:39 -5.6 °C -8 °C 34496.6 hPa ESE 15 km/h 15 km/h 76 % 0 mm
11:44 -5.6 °C -8.1 °C 34496.6 hPa NE 9.3 km/h 9.3 km/h 75 % 0 mm
11:49 -5.3 °C -8 °C 34496.6 hPa SE 15 km/h 15 km/h 74 % 0 mm
11:54 -5 °C -7.8 °C 34496.6 hPa SE 15 km/h 15 km/h 73 % 0 mm
11:59 -5.1 °C -8 °C 34496.6 hPa East 15 km/h 15 km/h 72 % 0 mm
12:04 -4.9 °C -7.9 °C 34496.6 hPa East 15 km/h 15 km/h 72 % 0 mm
12:09 -4.8 °C -7.9 °C 34496.6 hPa ESE 11.9 km/h 11.9 km/h 71 % 0 mm
12:14 -4.6 °C -7.8 °C 34496.6 hPa ESE 17.9 km/h 17.9 km/h 70 % 0 mm
12:19 -4.6 °C -7.8 °C 34462.7 hPa ENE 16.6 km/h 16.6 km/h 70 % 0 mm
12:24 -4.7 °C -8.2 °C 34462.7 hPa NE 32.8 km/h 32.8 km/h 68 % 0 mm
12:29 -4.4 °C -8.1 °C 34462.7 hPa South 15 km/h 15 km/h 67 % 0 mm
12:34 -4.3 °C -8 °C 34462.7 hPa East 11.9 km/h 11.9 km/h 66 % 0 mm
12:39 -4.3 °C -8.1 °C 34462.7 hPa SSW 23.8 km/h 23.8 km/h 66 % 0 mm
12:44 -4.4 °C -8.3 °C 34462.7 hPa ENE 20.9 km/h 20.9 km/h 65 % 0 mm
12:49 -4.4 °C -8.6 °C 34496.6 hPa ENE 29.8 km/h 29.8 km/h 63 % 0 mm
12:54 -4.3 °C -8.4 °C 34496.6 hPa South 15 km/h 15 km/h 64 % 0 mm
12:59 -4.1 °C -8.2 °C 34496.6 hPa ENE 9.3 km/h 9.3 km/h 64 % 0 mm
13:04 -4.3 °C -8.3 °C 34496.6 hPa ESE 15 km/h 15 km/h 64 % 0 mm
13:05 -4.3 °C -8.3 °C 34496.6 hPa ENE 15.3 km/h 15.3 km/h 64 % 0 mm
13:10 -4.4 °C -8.4 °C 34496.6 hPa ENE 17.9 km/h 17.9 km/h 64 % 0 mm
13:15 -4.4 °C -8.3 °C 34496.6 hPa ESE 11.9 km/h 11.9 km/h 65 % 0 mm
13:20 -4.2 °C -8.4 °C 34462.7 hPa South 11.9 km/h 11.9 km/h 63 % 0 mm
13:25 -4.1 °C -8.6 °C 34462.7 hPa East 20.9 km/h 20.9 km/h 61 % 0 mm
13:30 -4.3 °C -8.8 °C 34462.7 hPa ESE 23.8 km/h 23.8 km/h 60 % 0 mm
13:35 -4.2 °C -8.8 °C 34462.7 hPa ESE 29.8 km/h 29.8 km/h 60 % 0 mm
13:40 -4.2 °C -8.9 °C 34462.7 hPa ESE 23.8 km/h 23.8 km/h 59 % 0 mm
13:45 -4.2 °C -9.1 °C 34462.7 hPa ENE 26.9 km/h 26.9 km/h 58 % 0 mm
13:50 -4.1 °C -8.8 °C 34462.7 hPa ESE 14 km/h 14 km/h 59 % 0 mm
13:55 -4.1 °C -8.8 °C 34462.7 hPa ESE 11.9 km/h 11.9 km/h 59 % 0 mm
14:00 -4.1 °C -8.8 °C 34462.7 hPa ESE 17.9 km/h 17.9 km/h 59 % 0 mm
14:05 -4.2 °C -8.8 °C 34462.7 hPa ESE 15 km/h 15 km/h 60 % 0 mm
14:10 -3.8 °C -8.4 °C 34462.7 hPa NNE 23.8 km/h 23.8 km/h 60 % 0 mm
14:15 -3.8 °C -8.6 °C 34462.7 hPa East 15 km/h 15 km/h 59 % 0 mm
14:20 -4.1 °C -8.7 °C 34462.7 hPa ESE 20.9 km/h 20.9 km/h 60 % 0 mm
14:25 -4.2 °C -8.7 °C 34462.7 hPa East 9 km/h 14.5 km/h 61 % 0 mm
14:30 -3.9 °C -8.6 °C 34462.7 hPa ENE 22.5 km/h 22.5 km/h 60 % 0 mm
14:35 -4.1 °C -8.7 °C 34462.7 hPa ENE 17.9 km/h 17.9 km/h 60 % 0 mm
14:40 -4.1 °C -8.8 °C 34462.7 hPa ENE 14 km/h 14 km/h 59 % 0 mm
14:45 -4.1 °C -8.7 °C 34462.7 hPa East 15 km/h 15 km/h 60 % 0 mm
14:50 -4 °C -8.6 °C 34462.7 hPa ESE 20.9 km/h 20.9 km/h 60 % 0 mm
14:55 -3.9 °C -8.7 °C 34462.7 hPa ESE 17.9 km/h 17.9 km/h 59 % 0 mm
15:00 -4.1 °C -8.7 °C 34462.7 hPa East 25.1 km/h 25.1 km/h 60 % 0 mm
15:05 -4.1 °C -8.4 °C 34462.7 hPa ESE 17.9 km/h 17.9 km/h 62 % 0 mm
15:10 -4.2 °C -8.6 °C 34462.7 hPa East 15 km/h 15 km/h 61 % 0 mm
15:15 -4.3 °C -8.6 °C 34462.7 hPa ENE 20.9 km/h 20.9 km/h 62 % 0 mm
15:20 -4.2 °C -8.4 °C 34462.7 hPa ENE 15.6 km/h 15.6 km/h 63 % 0 mm
15:25 -4.3 °C -8.5 °C 34462.7 hPa ENE 17.9 km/h 17.9 km/h 63 % 0 mm
15:30 -4.4 °C -8.6 °C 34462.7 hPa ENE 15 km/h 15 km/h 63 % 0 mm
15:35 -4.4 °C -8.6 °C 34462.7 hPa ESE 15.6 km/h 15.6 km/h 63 % 0 mm
15:40 -4.4 °C -8.6 °C 34462.7 hPa ESE 25.1 km/h 25.1 km/h 63 % 0 mm
15:45 -4.5 °C -8.5 °C 34462.7 hPa ESE 29.8 km/h 29.8 km/h 64 % 0 mm
15:50 -4.5 °C -8.5 °C 34462.7 hPa ESE 15 km/h 15 km/h 64 % 0 mm
15:55 -4.5 °C -8.5 °C 34462.7 hPa ESE 25.9 km/h 25.9 km/h 64 % 0 mm
16:00 -4.6 °C -8.6 °C 34462.7 hPa ENE 20.3 km/h 20.3 km/h 64 % 0 mm
16:05 -4.4 °C -8.6 °C 34462.7 hPa ESE 15 km/h 15 km/h 63 % 0 mm
16:10 -4.5 °C -8.5 °C 34462.7 hPa East 15 km/h 15 km/h 64 % 0 mm
16:15 -4.4 °C -8.7 °C 34462.7 hPa East 20.9 km/h 20.9 km/h 62 % 0 mm
16:23 -4.6 °C -8.7 °C 34462.7 hPa ENE 20.9 km/h 20.9 km/h 63 % 0 mm
16:28 -4.6 °C -8.7 °C 34462.7 hPa ENE 23.8 km/h 23.8 km/h 63 % 0 mm
16:33 -4.4 °C -8.7 °C 34428.8 hPa South 11.9 km/h 11.9 km/h 62 % 0 mm
16:38 -4.4 °C -8.8 °C 34428.8 hPa SE 11.9 km/h 11.9 km/h 61 % 0 mm
16:43 -4.4 °C -8.9 °C 34428.8 hPa ESE 14.5 km/h 14.5 km/h 61 % 0 mm
16:48 -4.6 °C -9 °C 34462.7 hPa ESE 20.9 km/h 20.9 km/h 61 % 0 mm
16:53 -4.6 °C -8.8 °C 34462.7 hPa East 20.9 km/h 20.9 km/h 62 % 0 mm
16:58 -4.7 °C -9.1 °C 34462.7 hPa ENE 23.8 km/h 23.8 km/h 61 % 0 mm
17:03 -4.7 °C -9.1 °C 34462.7 hPa East 23.8 km/h 23.8 km/h 61 % 0 mm
17:08 -4.7 °C -9.1 °C 34462.7 hPa ENE 17.9 km/h 17.9 km/h 61 % 0 mm
17:13 -4.7 °C -9.1 °C 34462.7 hPa ESE 17.9 km/h 17.9 km/h 61 % 0 mm
17:18 -4.8 °C -9.2 °C 34428.8 hPa SSW 26.9 km/h 26.9 km/h 61 % 0 mm
17:23 -4.8 °C -9.1 °C 34428.8 hPa ENE 15 km/h 15 km/h 62 % 0 mm
17:28 -4.8 °C -9.2 °C 34428.8 hPa ESE 20.9 km/h 20.9 km/h 61 % 0 mm
17:33 -4.8 °C -9.2 °C 34462.7 hPa SE 29.8 km/h 29.8 km/h 61 % 0 mm
17:38 -4.7 °C -9.3 °C 34462.7 hPa ESE 17.9 km/h 17.9 km/h 60 % 0 mm
17:43 -4.6 °C -9.2 °C 34462.7 hPa ESE 25.9 km/h 25.9 km/h 60 % 0 mm
17:48 -4.7 °C -9.3 °C 34462.7 hPa ENE 15 km/h 15 km/h 60 % 0 mm
17:53 -4.7 °C -9.2 °C 34462.7 hPa ESE 15 km/h 15 km/h 60 % 0 mm
17:58 -4.8 °C -9.4 °C 34462.7 hPa ESE 17.9 km/h 17.9 km/h 60 % 0 mm
18:03 -4.8 °C -9.4 °C 34462.7 hPa ESE 22.5 km/h 22.5 km/h 60 % 0 mm
18:08 -4.9 °C -9.3 °C 34462.7 hPa ENE 20.3 km/h 20.3 km/h 61 % 0 mm
18:13 -5 °C -9.6 °C 34462.7 hPa ESE 16.6 km/h 16.6 km/h 60 % 0 mm
18:18 -5 °C -9.4 °C 34462.7 hPa ENE 20.9 km/h 20.9 km/h 61 % 0 mm
18:23 -5.1 °C -9.4 °C 34462.7 hPa ESE 17.9 km/h 17.9 km/h 61 % 0 mm
18:28 -5.1 °C -9.4 °C 34462.7 hPa East 17.9 km/h 17.9 km/h 61 % 0 mm
18:33 -5.1 °C -9.5 °C 34462.7 hPa ESE 15 km/h 15 km/h 61 % 0 mm
18:38 -5.1 °C -9.5 °C 34462.7 hPa SSW 15 km/h 15 km/h 61 % 0 mm
18:43 -5.1 °C -9.5 °C 34462.7 hPa ESE 20.9 km/h 20.9 km/h 61 % 0 mm
18:48 -5.2 °C -9.4 °C 34496.6 hPa SE 15 km/h 15 km/h 62 % 0 mm
18:53 -5.3 °C -9.6 °C 34496.6 hPa ESE 20.9 km/h 20.9 km/h 62 % 0 mm
18:58 -5.4 °C -9.5 °C 34496.6 hPa ESE 19.6 km/h 19.6 km/h 63 % 0 mm
19:03 -5.4 °C -9.6 °C 34462.7 hPa SE 19.6 km/h 19.6 km/h 63 % 0 mm
19:08 -5.5 °C -9.5 °C 34462.7 hPa ESE 15 km/h 15 km/h 64 % 0 mm
19:13 -5.5 °C -9.5 °C 34462.7 hPa SSE 20.9 km/h 20.9 km/h 64 % 0 mm
19:18 -5.5 °C -9.5 °C 34462.7 hPa ENE 16.1 km/h 16.1 km/h 64 % 0 mm
19:23 -5.6 °C -9.3 °C 34462.7 hPa ENE 15 km/h 15 km/h 66 % 0 mm
19:28 -5.6 °C -9.3 °C 34462.7 hPa ESE 9 km/h 9 km/h 66 % 0 mm
19:33 -5.7 °C -9.3 °C 34496.6 hPa ESE 23.3 km/h 23.3 km/h 66 % 0 mm
19:38 -5.7 °C -9.4 °C 34496.6 hPa East 17.9 km/h 17.9 km/h 66 % 0 mm
19:43 -5.8 °C -9.7 °C 34496.6 hPa ESE 17.9 km/h 17.9 km/h 64 % 0 mm
19:48 -5.8 °C -9.9 °C 34533.8 hPa NE 17.9 km/h 17.9 km/h 63 % 0 mm
19:53 -5.9 °C -9.9 °C 34533.8 hPa ENE 11.9 km/h 11.9 km/h 63 % 0 mm
19:58 -5.9 °C -10.1 °C 34533.8 hPa NNE 8 km/h 8 km/h 63 % 0 mm
20:03 -6 °C -10.1 °C 34533.8 hPa ENE 15 km/h 15 km/h 63 % 0 mm
20:08 -6.1 °C -10.2 °C 34533.8 hPa North 15.6 km/h 15.6 km/h 62 % 0 mm
20:13 -6.1 °C -10.4 °C 34533.8 hPa NNW 22.5 km/h 22.5 km/h 61 % 0 mm
20:18 -6.1 °C -10.7 °C 34533.8 hPa North 26.9 km/h 26.9 km/h 59 % 0 mm
20:23 -6.1 °C -10.8 °C 34533.8 hPa NNE 20.9 km/h 20.9 km/h 58 % 0 mm
20:28 -6.1 °C -10.8 °C 34533.8 hPa ENE 22 km/h 22 km/h 58 % 0 mm
20:33 -6.1 °C -10.7 °C 34533.8 hPa NNE 20.3 km/h 20.3 km/h 59 % 0 mm
20:38 -6.2 °C -11.1 °C 34533.8 hPa East 15 km/h 15 km/h 57 % 0 mm
20:43 -6.2 °C -11.1 °C 34533.8 hPa ENE 15 km/h 15 km/h 57 % 0 mm
20:48 -6.2 °C -11.2 °C 34533.8 hPa ESE 26.9 km/h 26.9 km/h 56 % 0 mm
20:53 -6.3 °C -11.2 °C 34533.8 hPa NNE 20.9 km/h 20.9 km/h 57 % 0 mm
20:58 -6.6 °C -11.2 °C 34533.8 hPa NNW 17.9 km/h 17.9 km/h 59 % 0 mm
21:03 -6.7 °C -11 °C 34533.8 hPa NNE 23.8 km/h 23.8 km/h 61 % 0 mm
21:08 -6.7 °C -11 °C 34533.8 hPa ENE 11.9 km/h 11.9 km/h 61 % 0 mm
21:13 -6.8 °C -11 °C 34533.8 hPa NNE 15 km/h 15 km/h 62 % 0 mm
21:18 -6.9 °C -10.9 °C 34567.7 hPa ENE 15 km/h 15 km/h 63 % 0 mm
21:23 -7.1 °C -11.1 °C 34567.7 hPa ENE 8 km/h 8 km/h 63 % 0 mm
21:28 -7.1 °C -11.1 °C 34567.7 hPa East 9 km/h 9 km/h 63 % 0 mm
21:33 -7.1 °C -11.1 °C 34567.7 hPa ENE 11.9 km/h 11.9 km/h 63 % 0 mm
21:38 -7.2 °C -11.3 °C 34567.7 hPa ENE 23.8 km/h 23.8 km/h 62 % 0 mm
21:43 -7.2 °C -11.2 °C 34567.7 hPa NE 17.9 km/h 17.9 km/h 63 % 0 mm
21:48 -7.2 °C -11.2 °C 34601.5 hPa NE 9 km/h 9 km/h 63 % 0 mm
21:53 -7.3 °C -11 °C 34601.5 hPa NNE 3.1 km/h 3.1 km/h 65 % 0 mm
21:58 -7.3 °C -11.1 °C 34601.5 hPa ENE 3.1 km/h 3.1 km/h 65 % 0 mm
22:03 -7.4 °C -11 °C 34601.5 hPa North 7.6 km/h 7.6 km/h 66 % 0 mm
22:08 -7.6 °C -10.9 °C 34601.5 hPa North 3.7 km/h 3.7 km/h 68 % 0 mm
22:13 -7.7 °C -10.9 °C 34601.5 hPa NNE 11.1 km/h 11.1 km/h 69 % 0 mm
22:18 -7.8 °C -10.9 °C 34601.5 hPa NNE 9 km/h 9 km/h 70 % 0 mm
22:23 -7.9 °C -10.9 °C 34601.5 hPa NE 9 km/h 9 km/h 71 % 0 mm
22:28 -7.9 °C -10.8 °C 34601.5 hPa NNE 7.6 km/h 7.6 km/h 72 % 0 mm
22:33 -8 °C -10.8 °C 34601.5 hPa NNE 6 km/h 6 km/h 72 % 0 mm
22:38 -8.1 °C -10.9 °C 34601.5 hPa ENE 9 km/h 9 km/h 72 % 0 mm
22:43 -8.2 °C -11 °C 34601.5 hPa NNE 15 km/h 15 km/h 72 % 0 mm
22:48 -8.2 °C -10.9 °C 34601.5 hPa ENE 9.8 km/h 9.8 km/h 73 % 0 mm
22:53 -8.2 °C -10.9 °C 34601.5 hPa NNE 15 km/h 15 km/h 73 % 0 mm
22:58 -8.3 °C -11 °C 34601.5 hPa North 11.9 km/h 11.9 km/h 73 % 0 mm
23:03 -8.3 °C -11 °C 34601.5 hPa North 9.3 km/h 9.3 km/h 73 % 0 mm
23:08 -8.3 °C -11 °C 34601.5 hPa NNE 11.9 km/h 11.9 km/h 73 % 0 mm
23:13 -8.3 °C -10.9 °C 34601.5 hPa NE 10.3 km/h 10.3 km/h 74 % 0 mm
23:18 -8.3 °C -10.9 °C 34601.5 hPa ENE 6 km/h 6 km/h 74 % 0 mm
23:23 -8.3 °C -10.9 °C 34601.5 hPa NNE 9 km/h 9 km/h 74 % 0 mm
23:28 -8.3 °C -10.9 °C 34601.5 hPa NNE 9.8 km/h 9.8 km/h 74 % 0 mm
23:29 -8.3 °C -10.9 °C 34601.5 hPa North 15 km/h 15 km/h 74 % 0 mm
23:34 -8.4 °C -10.7 °C 34601.5 hPa ENE 9 km/h 9 km/h 76 % 0 mm
23:39 -8.4 °C -10.7 °C 34601.5 hPa ENE 9 km/h 9 km/h 76 % 0 mm
23:44 -8.4 °C -10.8 °C 34601.5 hPa NE 6 km/h 6 km/h 76 % 0 mm
23:49 -8.4 °C -10.8 °C 34601.5 hPa NE 3.1 km/h   76 % 0 mm
23:54 -8.5 °C -10.9 °C 34601.5 hPa Calm     76 % 0 mm
23:59 -8.6 °C -10.9 °C 34601.5 hPa Calm     76 % 0 mm
Meteo Sesrovires
Elogis d' Weather Underground - 2 mb

Guio original per  Jim McMurry - jmcmurry@mwt.net Adaptat per a la plantilla per  Wim van der Kuil - Leuven-Template.eu

Trobareu la nostra informacio del temps tambe a:

Weather Underground

AWEKAS